Time;durP1;ratioP1;P1;durP2;ratioP2;P2;SDS_P1;SDS_P2;PMS_P1;PMS_P2;Temp;Humidity;BMP_temperature;BMP_pressure;BME280_temperature;BME280_humidity;BME280_pressure;Samples;Min_cycle;Max_cycle;Signal;HPM_P1;HPM_P2
2024/04/12 00:02:01;;;;;;;;;;;;;;;;;;5450559;26;19999;-65
2024/04/12 00:04:26;;;;;;;;;;;;;;;;;;5450569;26;20272;-65
2024/04/12 00:07:00;;;;;;;;;;;;;;;;;;5450590;26;19929;-65
2024/04/12 00:09:25;;;;;;;;;;;;;;;;;;5450674;26;19928;-65
2024/04/12 00:11:51;;;;;;;;;;;;;;;;;;5450579;26;19957;-65
2024/04/12 00:14:16;;;;;;;;;;;;;;;;;;5450953;26;19943;-65
2024/04/12 00:16:49;;;;;;;;;;;;;;;;;;5450436;26;19928;-66
2024/04/12 00:19:18;;;;;;;;;;;;;;;;;;5450373;26;19928;-65
2024/04/12 00:21:46;;;;;;;;;;;;;;;;;;5449569;26;19928;-65
2024/04/12 00:24:11;;;;;;;;;;;;;;;;;;5450659;26;19956;-65
2024/04/12 00:26:36;;;;;;;;;;;;;;;;;;5450685;26;19929;-66
2024/04/12 00:29:07;;;;;;;;;;;;;;;;;;5449891;26;20000;-65
2024/04/12 00:31:42;;;;;;;;;;;;;;;;;;5431560;26;19936;-65
2024/04/12 00:34:07;;;;;;;;;;;;;;;;;;5415469;26;19929;-65
2024/04/12 00:36:34;;;;;;;;;;;;;;;;;;5419356;26;20373;-65
2024/04/12 00:39:00;;;;;;;;;;;;;;;;;;5442346;26;19932;-65
2024/04/12 00:41:26;;;;;;;;;;;;;;;;;;5450012;26;19965;-65
2024/04/12 00:43:52;;;;;;;;;;;;;;;;;;5450211;26;19997;-65
2024/04/12 00:46:19;;;;;;;;;;;;;;;;;;5450279;26;19933;-65
2024/04/12 00:48:44;;;;;;;;;;;;;;;;;;5449936;26;20366;-65
2024/04/12 00:51:09;;;;;;;;;;;;;;;;;;5449358;26;19936;-65
2024/04/12 00:53:35;;;;;;;;;;;;;;;;;;5449823;26;19928;-65
2024/04/12 00:56:03;;;;;;;;;;;;;;;;;;5449997;26;20534;-65
2024/04/12 00:58:32;;;;;;;;;;;;;;;;;;5450091;26;19929;-65
2024/04/12 01:01:08;;;;;;;;;;;;;;;;;;5445689;26;19937;-65
2024/04/12 01:03:35;;;;;;;;;;;;;;;;;;5415299;26;20431;-65
2024/04/12 01:06:01;;;;;;;;;;;;;;;;;;5415108;26;19941;-64
2024/04/12 01:08:29;;;;;;;;;;;;;;;;;;5415074;26;19929;-64
2024/04/12 01:10:54;;;;;;;;;;;;;;;;;;5423598;26;19997;-65
2024/04/12 01:13:20;;;;;;;;;;;;;;;;;;5449376;26;19937;-65
2024/04/12 01:15:47;;;;;;;;;;;;;;;;;;5449711;26;19928;-65
2024/04/12 01:18:14;;;;;;;;;;;;;;;;;;5449454;26;19940;-65
2024/04/12 01:20:43;;;;;;;;;;;;;;;;;;5455260;26;19940;-65
2024/04/12 01:23:10;;;;;;;;;;;;;;;;;;5449078;26;20362;-65
2024/04/12 01:25:35;;;;;;;;;;;;;;;;;;5449550;26;19939;-65
2024/04/12 01:28:02;;;;;;;;;;;;;;;;;;5449221;26;19928;-65
2024/04/12 01:30:30;;;;;;;;;;;;;;;;;;5449348;26;19935;-65
2024/04/12 01:32:57;;;;;;;;;;;;;;;;;;5449216;26;19941;-65
2024/04/12 01:35:22;;;;;;;;;;;;;;;;;;5427033;26;20023;-65
2024/04/12 01:37:51;;;;;;;;;;;;;;;;;;5414536;26;19945;-65
2024/04/12 01:40:16;;;;;;;;;;;;;;;;;;5437185;26;19932;-65
2024/04/12 01:42:43;;;;;;;;;;;;;;;;;;5449114;26;19935;-65
2024/04/12 01:45:14;;;;;;;;;;;;;;;;;;5449166;26;19935;-65
2024/04/12 01:47:39;;;;;;;;;;;;;;;;;;5449180;26;20270;-65
2024/04/12 01:50:05;;;;;;;;;;;;;;;;;;5451085;26;20272;-65
2024/04/12 01:52:30;;;;;;;;;;;;;;;;;;5459397;26;19936;-65
2024/04/12 01:55:05;;;;;;;;;;;;;;;;;;5452681;26;19997;-65
2024/04/12 01:57:30;;;;;;;;;;;;;;;;;;5452984;26;20053;-65
2024/04/12 01:59:56;;;;;;;;;;;;;;;;;;5452552;26;19961;-65
2024/04/12 02:02:21;;;;;;;;;;;;;;;;;;5452049;26;19928;-65
2024/04/12 02:04:51;;;;;;;;;;;;;;;;;;5452819;26;19937;-65
2024/04/12 02:07:16;;;;;;;;;;;;;;;;;;5452557;26;19929;-65
2024/04/12 02:09:41;;;;;;;;;;;;;;;;;;5452627;26;19935;-65
2024/04/12 02:12:06;;;;;;;;;;;;;;;;;;5452464;26;19928;-64
2024/04/12 02:14:32;;;;;;;;;;;;;;;;;;5452278;26;20038;-65
2024/04/12 02:16:58;;;;;;;;;;;;;;;;;;5449501;26;19997;-65
2024/04/12 02:19:24;;;;;;;;;;;;;;;;;;5433684;26;20009;-65
2024/04/12 02:21:50;;;;;;;;;;;;;;;;;;5452505;26;19929;-65
2024/04/12 02:24:17;;;;;;;;;;;;;;;;;;5452187;26;19997;-65
2024/04/12 02:26:42;;;;;;;;;;;;;;;;;;5450009;26;20430;-65
2024/04/12 02:29:08;;;;;;;;;;;;;;;;;;5452017;26;19940;-65
2024/04/12 02:31:35;;;;;;;;;;;;;;;;;;5452244;26;19936;-65
2024/04/12 02:34:01;;;;;;;;;;;;;;;;;;5452149;26;19939;-65
2024/04/12 02:36:30;;;;;;;;;;;;;;;;;;5452093;26;19940;-65
2024/04/12 02:38:55;;;;;;;;;;;;;;;;;;5439987;26;19936;-64
2024/04/12 02:41:21;;;;;;;;;;;;;;;;;;5417256;26;20022;-65
2024/04/12 02:43:51;;;;;;;;;;;;;;;;;;5437657;26;19939;-65
2024/04/12 02:46:16;;;;;;;;;;;;;;;;;;5451656;26;19937;-65
2024/04/12 02:48:44;;;;;;;;;;;;;;;;;;5452111;26;20294;-65
2024/04/12 02:51:12;;;;;;;;;;;;;;;;;;5451713;26;19953;-65
2024/04/12 02:53:37;;;;;;;;;;;;;;;;;;5441112;26;19961;-65
2024/04/12 02:56:02;;;;;;;;;;;;;;;;;;5417163;26;19933;-62
2024/04/12 02:58:28;;;;;;;;;;;;;;;;;;5417050;26;19944;-61
2024/04/12 03:00:53;;;;;;;;;;;;;;;;;;5416076;26;19935;-63
2024/04/12 03:03:18;;;;;;;;;;;;;;;;;;5431666;26;19928;-62
2024/04/12 03:05:43;;;;;;;;;;;;;;;;;;5438052;26;19961;-62
2024/04/12 03:08:17;;;;;;;;;;;;;;;;;;5417055;26;20676;-62
2024/04/12 03:10:45;;;;;;;;;;;;;;;;;;5437204;26;19986;-62
2024/04/12 03:13:12;;;;;;;;;;;;;;;;;;5451037;26;19928;-62
2024/04/12 03:15:40;;;;;;;;;;;;;;;;;;5451728;26;20382;-62
2024/04/12 03:18:05;;;;;;;;;;;;;;;;;;5451475;26;20280;-62
2024/04/12 03:20:30;;;;;;;;;;;;;;;;;;5451326;26;20365;-61
2024/04/12 03:22:55;;;;;;;;;;;;;;;;;;5451210;26;20369;-62
2024/04/12 03:25:22;;;;;;;;;;;;;;;;;;5450816;26;20336;-62
2024/04/12 03:27:47;;;;;;;;;;;;;;;;;;5450549;26;19939;-62
2024/04/12 03:30:15;;;;;;;;;;;;;;;;;;5451286;26;19929;-62
2024/04/12 03:32:44;;;;;;;;;;;;;;;;;;5450103;26;20272;-62
2024/04/12 03:35:09;;;;;;;;;;;;;;;;;;5450236;26;19936;-61
2024/04/12 03:37:38;;;;;;;;;;;;;;;;;;5451147;26;19928;-62
2024/04/12 03:40:07;;;;;;;;;;;;;;;;;;5449338;26;20300;-62
2024/04/12 03:42:32;;;;;;;;;;;;;;;;;;5451232;26;19968;-62
2024/04/12 03:44:58;;;;;;;;;;;;;;;;;;5450792;26;19936;-61
2024/04/12 03:47:25;;;;;;;;;;;;;;;;;;5450872;26;20266;-62
2024/04/12 03:49:52;;;;;;;;;;;;;;;;;;5451125;26;19929;-62
2024/04/12 03:52:19;;;;;;;;;;;;;;;;;;5450965;26;20425;-62
2024/04/12 03:54:47;;;;;;;;;;;;;;;;;;5451068;26;19980;-62
2024/04/12 03:57:13;;;;;;;;;;;;;;;;;;5450854;26;19928;-62
2024/04/12 03:59:38;;;;;;;;;;;;;;;;;;5450606;26;19936;-62
2024/04/12 04:02:07;;;;;;;;;;;;;;;;;;5450824;26;20307;-61
2024/04/12 04:04:37;;;;;;;;;;;;;;;;;;5450742;26;19935;-61
2024/04/12 04:07:02;;;;;;;;;;;;;;;;;;5450770;26;19936;-64
2024/04/12 04:09:28;;;;;;;;;;;;;;;;;;5450804;26;19937;-65
2024/04/12 04:11:53;;;;;;;;;;;;;;;;;;5450170;26;19936;-64
2024/04/12 04:14:19;;;;;;;;;;;;;;;;;;5449690;26;19939;-64
2024/04/12 04:16:49;;;;;;;;;;;;;;;;;;5450397;26;20372;-64
2024/04/12 04:19:16;;;;;;;;;;;;;;;;;;5450379;26;19940;-64
2024/04/12 04:21:42;;;;;;;;;;;;;;;;;;5450553;26;19964;-65
2024/04/12 04:24:10;;;;;;;;;;;;;;;;;;5449393;26;19929;-64
2024/04/12 04:26:35;;;;;;;;;;;;;;;;;;5449757;26;20467;-65
2024/04/12 04:29:00;;;;;;;;;;;;;;;;;;5450182;26;19928;-64
2024/04/12 04:31:25;;;;;;;;;;;;;;;;;;5450336;26;19935;-64
2024/04/12 04:33:51;;;;;;;;;;;;;;;;;;5450416;26;20459;-65
2024/04/12 04:36:21;;;;;;;;;;;;;;;;;;5449811;26;20237;-64
2024/04/12 04:38:49;;;;;;;;;;;;;;;;;;5450284;26;19928;-64
2024/04/12 04:41:19;;;;;;;;;;;;;;;;;;5450091;26;20644;-64
2024/04/12 04:43:46;;;;;;;;;;;;;;;;;;5443318;26;19929;-64
2024/04/12 04:46:29;;;;;;;;;;;;;;;;;;5415372;26;19928;-64
2024/04/12 04:48:54;;;;;;;;;;;;;;;;;;5419133;26;19936;-64
2024/04/12 04:51:20;;;;;;;;;;;;;;;;;;5419768;26;19953;-64
2024/04/12 04:53:46;;;;;;;;;;;;;;;;;;5449528;26;19932;-64
2024/04/12 04:56:12;;;;;;;;;;;;;;;;;;5449746;26;19935;-64
2024/04/12 04:58:41;;;;;;;;;;;;;;;;;;5449938;26;19937;-64
2024/04/12 05:01:06;;;;;;;;;;;;;;;;;;5449367;26;19929;-64
2024/04/12 05:03:36;;;;;;;;;;;;;;;;;;5449885;26;19940;-64
2024/04/12 05:06:05;;;;;;;;;;;;;;;;;;5449335;26;19942;-64
2024/04/12 05:08:35;;;;;;;;;;;;;;;;;;5449631;26;20391;-64
2024/04/12 05:11:00;;;;;;;;;;;;;;;;;;5449275;26;19944;-64
2024/04/12 05:13:28;;;;;;;;;;;;;;;;;;5435547;26;19933;-64
2024/04/12 05:15:54;;;;;;;;;;;;;;;;;;5414985;26;19954;-64
2024/04/12 05:18:19;;;;;;;;;;;;;;;;;;5414741;26;19929;-64
2024/04/12 05:20:47;;;;;;;;;;;;;;;;;;5427046;26;19929;-64
2024/04/12 05:23:12;;;;;;;;;;;;;;;;;;5448526;26;19928;-64
2024/04/12 05:25:37;;;;;;;;;;;;;;;;;;5439541;26;19997;-64
2024/04/12 05:28:06;;;;;;;;;;;;;;;;;;5452536;26;20009;-64
2024/04/12 05:30:36;;;;;;;;;;;;;;;;;;5452585;26;20361;-64
2024/04/12 05:33:02;;;;;;;;;;;;;;;;;;5446081;26;19936;-64
2024/04/12 05:35:30;;;;;;;;;;;;;;;;;;5452782;26;19929;-64
2024/04/12 05:37:55;;;;;;;;;;;;;;;;;;5452846;26;19936;-65
2024/04/12 05:40:25;;;;;;;;;;;;;;;;;;5451723;26;19929;-64
2024/04/12 05:42:50;;;;;;;;;;;;;;;;;;5425780;26;20163;-64
2024/04/12 05:45:19;;;;;;;;;;;;;;;;;;5452455;26;20048;-64
2024/04/12 05:47:44;;;;;;;;;;;;;;;;;;5452447;26;19928;-64
2024/04/12 05:50:12;;;;;;;;;;;;;;;;;;5452464;26;19928;-64
2024/04/12 05:52:37;;;;;;;;;;;;;;;;;;5452537;26;19928;-64
2024/04/12 05:55:10;;;;;;;;;;;;;;;;;;5451775;26;19935;-64
2024/04/12 05:57:35;;;;;;;;;;;;;;;;;;5451346;26;20357;-64
2024/04/12 06:00:09;;;;;;;;;;;;;;;;;;5451656;26;19928;-64
2024/04/12 06:02:34;;;;;;;;;;;;;;;;;;5451863;26;20324;-64
2024/04/12 06:05:00;;;;;;;;;;;;;;;;;;5452081;26;19939;-64
2024/04/12 06:07:26;;;;;;;;;;;;;;;;;;5450657;26;19929;-64
2024/04/12 06:09:53;;;;;;;;;;;;;;;;;;5450844;26;19929;-64
2024/04/12 06:12:18;;;;;;;;;;;;;;;;;;5451601;26;19929;-64
2024/04/12 06:14:45;;;;;;;;;;;;;;;;;;5449743;26;19943;-64
2024/04/12 06:17:11;;;;;;;;;;;;;;;;;;5450405;26;19957;-63
2024/04/12 06:19:37;;;;;;;;;;;;;;;;;;5451340;26;19977;-64
2024/04/12 06:22:02;;;;;;;;;;;;;;;;;;5447700;26;19935;-64
2024/04/12 06:24:29;;;;;;;;;;;;;;;;;;5451482;26;20354;-64
2024/04/12 06:26:55;;;;;;;;;;;;;;;;;;5452611;26;19936;-64
2024/04/12 06:29:22;;;;;;;;;;;;;;;;;;5452688;26;19928;-64
2024/04/12 06:31:49;;;;;;;;;;;;;;;;;;5452420;26;19940;-64
2024/04/12 06:34:17;;;;;;;;;;;;;;;;;;5452915;26;19929;-64
2024/04/12 06:36:45;;;;;;;;;;;;;;;;;;5450410;26;20012;-64
2024/04/12 06:39:10;;;;;;;;;;;;;;;;;;5452571;26;19928;-64
2024/04/12 06:41:35;;;;;;;;;;;;;;;;;;5452563;26;19928;-64
2024/04/12 06:44:03;;;;;;;;;;;;;;;;;;5451209;26;19943;-64
2024/04/12 06:46:28;;;;;;;;;;;;;;;;;;5452185;26;19936;-64
2024/04/12 06:48:59;;;;;;;;;;;;;;;;;;5452740;26;19947;-64
2024/04/12 06:51:25;;;;;;;;;;;;;;;;;;5452319;26;20294;-64
2024/04/12 06:53:50;;;;;;;;;;;;;;;;;;5450173;26;20377;-64
2024/04/12 06:56:20;;;;;;;;;;;;;;;;;;5451563;26;20261;-64
2024/04/12 06:58:48;;;;;;;;;;;;;;;;;;5452043;26;19928;-64
2024/04/12 07:01:15;;;;;;;;;;;;;;;;;;5452289;26;19932;-64
2024/04/12 07:03:46;;;;;;;;;;;;;;;;;;5452457;26;19935;-64
2024/04/12 07:06:13;;;;;;;;;;;;;;;;;;5452246;26;20289;-64
2024/04/12 07:08:39;;;;;;;;;;;;;;;;;;5452235;26;20476;-64
2024/04/12 07:11:07;;;;;;;;;;;;;;;;;;5452068;26;19997;-64
2024/04/12 07:13:33;;;;;;;;;;;;;;;;;;5452370;26;19947;-64
2024/04/12 07:16:01;;;;;;;;;;;;;;;;;;5452223;26;20447;-64
2024/04/12 07:18:26;;;;;;;;;;;;;;;;;;5451849;26;19936;-64
2024/04/12 07:20:57;;;;;;;;;;;;;;;;;;5452184;26;19929;-64
2024/04/12 07:23:22;;;;;;;;;;;;;;;;;;5452388;26;19928;-64
2024/04/12 07:25:47;;;;;;;;;;;;;;;;;;5451430;26;19935;-65
2024/04/12 07:28:13;;;;;;;;;;;;;;;;;;5452167;26;19928;-65
2024/04/12 07:30:38;;;;;;;;;;;;;;;;;;5450779;26;19956;-64
2024/04/12 07:33:05;;;;;;;;;;;;;;;;;;5451940;26;20391;-65
2024/04/12 07:35:32;;;;;;;;;;;;;;;;;;5451886;26;19935;-65
2024/04/12 07:37:59;;;;;;;;;;;;;;;;;;5451910;26;20276;-62
2024/04/12 07:40:24;;;;;;;;;;;;;;;;;;5451670;26;19928;-63
2024/04/12 07:42:50;;;;;;;;;;;;;;;;;;5451755;26;20695;-62
2024/04/12 07:45:20;;;;;;;;;;;;;;;;;;5451532;26;19936;-63
2024/04/12 07:47:55;;;;;;;;;;;;;;;;;;5451193;26;20349;-61
2024/04/12 07:50:28;;;;;;;;;;;;;;;;;;5451461;26;19929;-62
2024/04/12 07:52:54;;;;;;;;;;;;;;;;;;5451479;26;19940;-62
2024/04/12 07:55:24;;;;;;;;;;;;;;;;;;5451591;26;19928;-62
2024/04/12 07:57:52;;;;;;;;;;;;;;;;;;5448243;26;19997;-62
2024/04/12 08:00:27;;;;;;;;;;;;;;;;;;5451439;26;19929;-62
2024/04/12 08:02:55;;;;;;;;;;;;;;;;;;5450859;26;19928;-63
2024/04/12 08:05:25;;;;;;;;;;;;;;;;;;5451158;26;19936;-62
2024/04/12 08:07:50;;;;;;;;;;;;;;;;;;5451471;26;20305;-62
2024/04/12 08:10:29;;;;;;;;;;;;;;;;;;5451054;26;20365;-62
2024/04/12 08:12:57;;;;;;;;;;;;;;;;;;5423243;26;20372;-62
2024/04/12 08:15:22;;;;;;;;;;;;;;;;;;5449773;26;20013;-62
2024/04/12 08:17:49;;;;;;;;;;;;;;;;;;5450952;26;20429;-62
2024/04/12 08:20:14;;;;;;;;;;;;;;;;;;5450561;26;19968;-62
2024/04/12 08:22:42;;;;;;;;;;;;;;;;;;5450595;26;19997;-61
2024/04/12 08:25:08;;;;;;;;;;;;;;;;;;5451000;26;20225;-62
2024/04/12 08:27:35;;;;;;;;;;;;;;;;;;5451303;26;19928;-62
2024/04/12 08:30:00;;;;;;;;;;;;;;;;;;5451268;26;20261;-61
2024/04/12 08:32:31;;;;;;;;;;;;;;;;;;5451013;26;19928;-62
2024/04/12 08:34:58;;;;;;;;;;;;;;;;;;5450082;26;19932;-62
2024/04/12 08:37:30;;;;;;;;;;;;;;;;;;5450616;26;19972;-61
2024/04/12 08:39:55;;;;;;;;;;;;;;;;;;5450930;26;19956;-62
2024/04/12 08:42:28;;;;;;;;;;;;;;;;;;5450634;26;19929;-62
2024/04/12 08:44:54;;;;;;;;;;;;;;;;;;5451125;26;19935;-61
2024/04/12 08:49:51;;;;;;;;;;;;;;;;;;5450838;26;19933;-62
2024/04/12 08:52:28;;;;;;;;;;;;;;;;;;5450325;26;19928;-61
2024/04/12 08:54:54;;;;;;;;;;;;;;;;;;5450138;26;19953;-61
2024/04/12 08:57:21;;;;;;;;;;;;;;;;;;5450866;26;19936;-62
2024/04/12 08:59:46;;;;;;;;;;;;;;;;;;5449528;26;19939;-63
2024/04/12 09:02:13;;;;;;;;;;;;;;;;;;5450655;26;19928;-61
2024/04/12 09:04:39;;;;;;;;;;;;;;;;;;5447147;26;19997;-61
2024/04/12 09:07:05;;;;;;;;;;;;;;;;;;5450670;26;19929;-62
2024/04/12 09:09:30;;;;;;;;;;;;;;;;;;5450657;26;20258;-61
2024/04/12 09:11:55;;;;;;;;;;;;;;;;;;5449460;26;20294;-60
2024/04/12 09:14:20;;;;;;;;;;;;;;;;;;5450247;26;19936;-60
2024/04/12 09:16:47;;;;;;;;;;;;;;;;;;5450425;26;20369;-61
2024/04/12 09:19:14;;;;;;;;;;;;;;;;;;5450343;26;19932;-61
2024/04/12 09:21:47;;;;;;;;;;;;;;;;;;5448236;26;20318;-61
2024/04/12 09:24:15;;;;;;;;;;;;;;;;;;5447459;26;19934;-60
2024/04/12 09:26:55;;;;;;;;;;;;;;;;;;5449885;26;20001;-61
2024/04/12 09:29:26;;;;;;;;;;;;;;;;;;5449939;26;19928;-62
2024/04/12 09:34:35;;;;;;;;;;;;;;;;;;5450209;26;19936;-62
2024/04/12 09:37:03;;;;;;;;;;;;;;;;;;5450219;26;20618;-62
2024/04/12 09:42:12;;;;;;;;;;;;;;;;;;5449926;26;19939;-60
2024/04/12 09:44:49;;;;;;;;;;;;;;;;;;5450069;26;20280;-61
2024/04/12 10:38:54;;;;;;;;;;;;;;;;;;5452756;26;19935;-64
2024/04/12 10:41:19;;;;;;;;;;;;;;;;;;5452710;26;19935;-64
2024/04/12 10:43:45;;;;;;;;;;;;;;;;;;5452449;26;19928;-64
2024/04/12 10:46:11;;;;;;;;;;;;;;;;;;5452626;26;19929;-64
2024/04/12 10:48:37;;;;;;;;;;;;;;;;;;5452665;26;19928;-64
2024/04/12 10:51:04;;;;;;;;;;;;;;;;;;5452090;26;19935;-64
2024/04/12 10:53:29;;;;;;;;;;;;;;;;;;5452818;26;19936;-64
2024/04/12 10:55:55;;;;;;;;;;;;;;;;;;5452396;26;19932;-64
2024/04/12 10:58:23;;;;;;;;;;;;;;;;;;5452425;26;19929;-64
2024/04/12 11:00:48;;;;;;;;;;;;;;;;;;5452355;26;19941;-64
2024/04/12 11:03:23;;;;;;;;;;;;;;;;;;5452267;26;19933;-64
2024/04/12 11:05:49;;;;;;;;;;;;;;;;;;5452133;26;19940;-64
2024/04/12 11:08:14;;;;;;;;;;;;;;;;;;5452372;26;19997;-61
2024/04/12 11:10:40;;;;;;;;;;;;;;;;;;5451892;26;19966;-60
2024/04/12 11:13:08;;;;;;;;;;;;;;;;;;5451536;26;20328;-61
2024/04/12 11:31:39;;;;;;;;;;;;;;;;;;5451797;26;19931;-61
2024/04/12 11:34:06;;;;;;;;;;;;;;;;;;5451803;26;19936;-61
2024/04/12 11:36:33;;;;;;;;;;;;;;;;;;5451812;26;19940;-61
2024/04/12 11:38:59;;;;;;;;;;;;;;;;;;5451842;26;19929;-61
2024/04/12 11:41:24;;;;;;;;;;;;;;;;;;5451776;26;19928;-59
2024/04/12 11:43:51;;;;;;;;;;;;;;;;;;5451407;26;20369;-62
2024/04/12 11:46:23;;;;;;;;;;;;;;;;;;5451516;26;19935;-62
2024/04/12 11:48:49;;;;;;;;;;;;;;;;;;5451709;26;19928;-62
2024/04/12 11:51:15;;;;;;;;;;;;;;;;;;5451278;26;19935;-61
2024/04/12 11:53:42;;;;;;;;;;;;;;;;;;5451560;26;20316;-61
2024/04/12 11:56:09;;;;;;;;;;;;;;;;;;5451462;26;19935;-61
2024/04/12 11:58:35;;;;;;;;;;;;;;;;;;5428589;26;19948;-60
2024/04/12 12:01:04;;;;;;;;;;;;;;;;;;5448027;26;20385;-60
2024/04/12 12:03:30;;;;;;;;;;;;;;;;;;5448508;26;20365;-61
2024/04/12 12:05:57;;;;;;;;;;;;;;;;;;5451177;26;19935;-60
2024/04/12 12:08:32;;;;;;;;;;;;;;;;;;5451332;26;19936;-61
2024/04/12 12:10:57;;;;;;;;;;;;;;;;;;5450574;26;19935;-61
2024/04/12 12:13:22;;;;;;;;;;;;;;;;;;5451242;26;19928;-61
2024/04/12 12:15:51;;;;;;;;;;;;;;;;;;5449814;26;19952;-60
2024/04/12 12:18:16;;;;;;;;;;;;;;;;;;5451066;26;19928;-62
2024/04/12 12:20:46;;;;;;;;;;;;;;;;;;5450800;26;19997;-60
2024/04/12 12:23:11;;;;;;;;;;;;;;;;;;5451134;26;19997;-61
2024/04/12 12:25:38;;;;;;;;;;;;;;;;;;5450948;26;19928;-61
2024/04/12 12:28:04;;;;;;;;;;;;;;;;;;5451162;26;19929;-60
2024/04/12 12:30:33;;;;;;;;;;;;;;;;;;5450941;26;20009;-61
2024/04/12 12:32:59;;;;;;;;;;;;;;;;;;5450368;26;19939;-61
2024/04/12 12:35:24;;;;;;;;;;;;;;;;;;5449821;26;19964;-60
2024/04/12 12:37:49;;;;;;;;;;;;;;;;;;5450871;26;19936;-60
2024/04/12 12:40:18;;;;;;;;;;;;;;;;;;5451035;26;20261;-60
2024/04/12 12:42:43;;;;;;;;;;;;;;;;;;5450840;26;19929;-61
2024/04/12 12:45:11;;;;;;;;;;;;;;;;;;5451310;26;19928;-62
2024/04/12 12:47:36;;;;;;;;;;;;;;;;;;5450705;26;19928;-61
2024/04/12 12:50:02;;;;;;;;;;;;;;;;;;5450732;26;20318;-61
2024/04/12 12:52:31;;;;;;;;;;;;;;;;;;5450587;26;19974;-60
2024/04/12 12:55:00;;;;;;;;;;;;;;;;;;5449891;26;21630;-61
2024/04/12 12:57:25;;;;;;;;;;;;;;;;;;5450547;26;20001;-62
2024/04/12 12:59:50;;;;;;;;;;;;;;;;;;5445203;26;19944;-61
2024/04/12 13:02:15;;;;;;;;;;;;;;;;;;5444973;26;19929;-60
2024/04/12 13:04:41;;;;;;;;;;;;;;;;;;5448699;26;19940;-61
2024/04/12 13:07:07;;;;;;;;;;;;;;;;;;5466728;26;19935;-62
2024/04/12 13:09:35;;;;;;;;;;;;;;;;;;5460795;26;19982;-62
2024/04/12 13:12:00;;;;;;;;;;;;;;;;;;5447818;26;19932;-62
2024/04/12 13:14:25;;;;;;;;;;;;;;;;;;5450168;26;20369;-61
2024/04/12 13:16:50;;;;;;;;;;;;;;;;;;5447333;26;20026;-62
2024/04/12 13:19:15;;;;;;;;;;;;;;;;;;5448722;26;19943;-60
2024/04/12 13:21:40;;;;;;;;;;;;;;;;;;5444843;26;19978;-61
2024/04/12 13:24:07;;;;;;;;;;;;;;;;;;5450163;26;19928;-61
2024/04/12 13:26:33;;;;;;;;;;;;;;;;;;5450406;26;19994;-61
2024/04/12 13:28:58;;;;;;;;;;;;;;;;;;5450152;26;19961;-59
2024/04/12 13:31:23;;;;;;;;;;;;;;;;;;5449823;26;19929;-62
2024/04/12 13:33:49;;;;;;;;;;;;;;;;;;5450024;26;19935;-61
2024/04/12 13:36:16;;;;;;;;;;;;;;;;;;5449988;26;19929;-60
2024/04/12 13:38:42;;;;;;;;;;;;;;;;;;5449871;26;19935;-61
2024/04/12 13:41:10;;;;;;;;;;;;;;;;;;5450001;26;20357;-62
2024/04/12 13:43:39;;;;;;;;;;;;;;;;;;5449523;26;19929;-61
2024/04/12 13:51:33;;;;;;;;;;;;;;;;;;5452979;26;20005;-60
2024/04/12 13:53:58;;;;;;;;;;;;;;;;;;5452331;26;19940;-59
2024/04/12 13:56:26;;;;;;;;;;;;;;;;;;5453329;26;19936;-60
2024/04/12 13:58:56;;;;;;;;;;;;;;;;;;5450184;26;20630;-60
2024/04/12 14:01:24;;;;;;;;;;;;;;;;;;5452559;26;19935;-62
2024/04/12 14:03:49;;;;;;;;;;;;;;;;;;5450704;26;20053;-61
2024/04/12 14:06:14;;;;;;;;;;;;;;;;;;5452804;26;19989;-59
2024/04/12 14:08:39;;;;;;;;;;;;;;;;;;5452494;26;19934;-60
2024/04/12 14:11:04;;;;;;;;;;;;;;;;;;5452903;26;19935;-60
2024/04/12 14:13:30;;;;;;;;;;;;;;;;;;5452733;26;19947;-60
2024/04/12 14:15:57;;;;;;;;;;;;;;;;;;5452805;26;20672;-61
2024/04/12 14:18:23;;;;;;;;;;;;;;;;;;5453025;26;20418;-59
2024/04/12 14:20:48;;;;;;;;;;;;;;;;;;5453004;26;19935;-62
2024/04/12 14:23:14;;;;;;;;;;;;;;;;;;5452009;26;19929;-60
2024/04/12 14:25:39;;;;;;;;;;;;;;;;;;5450920;26;19972;-60
2024/04/12 14:28:04;;;;;;;;;;;;;;;;;;5453005;26;19928;-61
2024/04/12 14:30:29;;;;;;;;;;;;;;;;;;5453050;26;19935;-60
2024/04/12 14:32:54;;;;;;;;;;;;;;;;;;5452411;26;19936;-61
2024/04/12 14:35:19;;;;;;;;;;;;;;;;;;5451272;26;19929;-60
2024/04/12 14:37:45;;;;;;;;;;;;;;;;;;5445902;26;19929;-63
2024/04/12 14:40:18;;;;;;;;;;;;;;;;;;5447809;26;19928;-63
2024/04/12 14:42:43;;;;;;;;;;;;;;;;;;5447477;26;19929;-63
2024/04/12 14:45:08;;;;;;;;;;;;;;;;;;5446107;26;19940;-63
2024/04/12 14:47:33;;;;;;;;;;;;;;;;;;5447849;26;19936;-64
2024/04/12 14:50:00;;;;;;;;;;;;;;;;;;5447683;26;19940;-63
2024/04/12 14:52:25;;;;;;;;;;;;;;;;;;5447979;26;19961;-64
2024/04/12 14:54:51;;;;;;;;;;;;;;;;;;5447344;26;19929;-64
2024/04/12 14:57:16;;;;;;;;;;;;;;;;;;5446351;26;19929;-64
2024/04/12 14:59:41;;;;;;;;;;;;;;;;;;5446651;26;19928;-64
2024/04/12 15:02:06;;;;;;;;;;;;;;;;;;5447667;26;19935;-63
2024/04/12 15:48:16;;;;;;;;;;;;;;;;;;5451837;26;19953;-61
2024/04/12 15:50:43;;;;;;;;;;;;;;;;;;5451836;26;19932;-61
2024/04/12 15:53:18;;;;;;;;;;;;;;;;;;5451982;26;19936;-60
2024/04/12 16:11:57;;;;;;;;;;;;;;;;;;5463144;26;20445;-63
2024/04/12 16:14:22;;;;;;;;;;;;;;;;;;5461270;26;19932;-60
2024/04/12 16:16:48;;;;;;;;;;;;;;;;;;5446652;26;19961;-62
2024/04/12 16:19:14;;;;;;;;;;;;;;;;;;5446309;26;20265;-62
2024/04/12 16:21:39;;;;;;;;;;;;;;;;;;5449732;26;19928;-62
2024/04/12 16:24:04;;;;;;;;;;;;;;;;;;5448224;26;19929;-60
2024/04/12 16:26:29;;;;;;;;;;;;;;;;;;5447226;26;19935;-62
2024/04/12 16:28:54;;;;;;;;;;;;;;;;;;5444487;26;20801;-60
2024/04/12 16:31:19;;;;;;;;;;;;;;;;;;5448274;26;19929;-61
2024/04/12 16:33:44;;;;;;;;;;;;;;;;;;5449182;26;19935;-62
2024/04/12 16:36:09;;;;;;;;;;;;;;;;;;5450272;26;19929;-62
2024/04/12 16:38:35;;;;;;;;;;;;;;;;;;5451010;26;20005;-59
2024/04/12 16:41:00;;;;;;;;;;;;;;;;;;5450584;26;19928;-62
2024/04/12 16:43:26;;;;;;;;;;;;;;;;;;5450182;26;19935;-61
2024/04/12 16:45:51;;;;;;;;;;;;;;;;;;5450020;26;20263;-61
2024/04/12 16:48:17;;;;;;;;;;;;;;;;;;5450111;26;20387;-61
2024/04/12 16:50:42;;;;;;;;;;;;;;;;;;5450641;26;19929;-63
2024/04/12 16:53:07;;;;;;;;;;;;;;;;;;5450043;26;19935;-63
2024/04/12 16:55:32;;;;;;;;;;;;;;;;;;5448052;26;20334;-62
2024/04/12 16:57:59;;;;;;;;;;;;;;;;;;5450892;26;19940;-60
2024/04/12 17:00:25;;;;;;;;;;;;;;;;;;5450684;26;20374;-61
2024/04/12 17:02:50;;;;;;;;;;;;;;;;;;5450698;26;19940;-60
2024/04/12 17:05:19;;;;;;;;;;;;;;;;;;5450563;26;19969;-61
2024/04/12 17:07:45;;;;;;;;;;;;;;;;;;5450424;26;19936;-62
2024/04/12 17:10:10;;;;;;;;;;;;;;;;;;5450565;26;19984;-61
2024/04/12 17:12:35;;;;;;;;;;;;;;;;;;5449366;26;19928;-62
2024/04/12 17:15:02;;;;;;;;;;;;;;;;;;5450577;26;19997;-61
2024/04/12 17:17:29;;;;;;;;;;;;;;;;;;5449049;26;20485;-62
2024/04/12 17:19:54;;;;;;;;;;;;;;;;;;5450638;26;19936;-60
2024/04/12 17:22:19;;;;;;;;;;;;;;;;;;5453224;26;19948;-62
2024/04/12 17:24:46;;;;;;;;;;;;;;;;;;5453732;26;19935;-61
2024/04/12 17:27:11;;;;;;;;;;;;;;;;;;5453880;26;19997;-61
2024/04/12 17:29:36;;;;;;;;;;;;;;;;;;5453780;26;19936;-61
2024/04/12 17:32:02;;;;;;;;;;;;;;;;;;5453665;26;19964;-61
2024/04/12 17:34:28;;;;;;;;;;;;;;;;;;5453671;26;19928;-61
2024/04/12 17:36:53;;;;;;;;;;;;;;;;;;5452882;26;20322;-62
2024/04/12 17:39:20;;;;;;;;;;;;;;;;;;5453018;26;20389;-62
2024/04/12 17:41:45;;;;;;;;;;;;;;;;;;5453284;26;20285;-62
2024/04/12 17:44:10;;;;;;;;;;;;;;;;;;5452591;26;20371;-62
2024/04/12 17:46:35;;;;;;;;;;;;;;;;;;5452881;26;20353;-61
2024/04/12 17:49:00;;;;;;;;;;;;;;;;;;5452298;26;20291;-61
2024/04/12 17:51:26;;;;;;;;;;;;;;;;;;5452209;26;19937;-62
2024/04/12 17:53:51;;;;;;;;;;;;;;;;;;5452672;26;19935;-61
2024/04/12 17:56:16;;;;;;;;;;;;;;;;;;5453556;26;19934;-60
2024/04/12 17:58:41;;;;;;;;;;;;;;;;;;5451844;26;20272;-62
2024/04/12 18:01:08;;;;;;;;;;;;;;;;;;5451527;26;19928;-60
2024/04/12 18:03:33;;;;;;;;;;;;;;;;;;5453098;26;20422;-61
2024/04/12 18:05:58;;;;;;;;;;;;;;;;;;5452505;26;19929;-63
2024/04/12 18:08:24;;;;;;;;;;;;;;;;;;5452647;26;19968;-61
2024/04/12 18:10:49;;;;;;;;;;;;;;;;;;5452393;26;19969;-61
2024/04/12 18:13:14;;;;;;;;;;;;;;;;;;5453046;26;19936;-62
2024/04/12 18:15:39;;;;;;;;;;;;;;;;;;5449382;26;19936;-62
2024/04/12 18:18:05;;;;;;;;;;;;;;;;;;5452651;26;19928;-62
2024/04/12 18:20:33;;;;;;;;;;;;;;;;;;5451212;26;19929;-62
2024/04/12 18:22:58;;;;;;;;;;;;;;;;;;5452653;26;19943;-62
2024/04/12 18:25:23;;;;;;;;;;;;;;;;;;5452095;26;19928;-61
2024/04/12 18:27:48;;;;;;;;;;;;;;;;;;5452156;26;20366;-61
2024/04/12 18:30:13;;;;;;;;;;;;;;;;;;5452070;26;20369;-63
2024/04/12 18:32:39;;;;;;;;;;;;;;;;;;5449096;26;20254;-62
2024/04/12 18:35:07;;;;;;;;;;;;;;;;;;5452141;26;19928;-61
2024/04/12 18:45:45;;;;;;;;;;;;;;;;;;5452530;26;19951;-62
2024/04/12 18:48:11;;;;;;;;;;;;;;;;;;5452327;26;19928;-62
2024/04/12 18:50:37;;;;;;;;;;;;;;;;;;5452698;26;19939;-62
2024/04/12 18:53:02;;;;;;;;;;;;;;;;;;5452436;26;19933;-63
2024/04/12 18:55:28;;;;;;;;;;;;;;;;;;5452307;26;19997;-62
2024/04/12 18:57:53;;;;;;;;;;;;;;;;;;5452546;26;19936;-62
2024/04/12 19:00:18;;;;;;;;;;;;;;;;;;5452430;26;20001;-62
2024/04/12 19:02:46;;;;;;;;;;;;;;;;;;5452382;26;19936;-61
2024/04/12 19:05:11;;;;;;;;;;;;;;;;;;5452147;26;19932;-62
2024/04/12 19:07:36;;;;;;;;;;;;;;;;;;5452582;26;19980;-63
2024/04/12 19:10:04;;;;;;;;;;;;;;;;;;5451607;26;19928;-62
2024/04/12 19:12:29;;;;;;;;;;;;;;;;;;5450557;26;19936;-62